createdAt,value
2017-11-07T00:00:27.624Z,6.50
2017-11-07T00:02:55.091Z,6.60
2017-11-07T00:05:22.551Z,6.60
2017-11-07T00:07:50.004Z,6.60
2017-11-07T00:10:17.471Z,6.60
2017-11-07T00:12:44.915Z,6.60
2017-11-07T00:15:12.371Z,6.70
2017-11-07T00:17:39.841Z,6.60
2017-11-07T00:20:07.287Z,6.60
2017-11-07T00:22:35.431Z,6.60
2017-11-07T00:25:02.894Z,6.60
2017-11-07T00:27:30.354Z,6.70
2017-11-07T00:29:57.792Z,6.70
2017-11-07T00:32:25.259Z,6.70
2017-11-07T00:34:52.702Z,6.70
2017-11-07T00:37:20.164Z,6.70
2017-11-07T00:39:47.633Z,6.70
2017-11-07T00:42:15.095Z,6.60
2017-11-07T00:44:42.539Z,6.60
2017-11-07T00:47:10.015Z,6.60
2017-11-07T00:49:37.466Z,6.50
2017-11-07T00:52:04.938Z,6.60
2017-11-07T00:54:32.375Z,6.60
2017-11-07T00:56:59.843Z,6.60
2017-11-07T00:59:27.304Z,6.70
2017-11-07T01:01:54.758Z,6.70
2017-11-07T01:04:22.236Z,6.60
2017-11-07T01:06:49.683Z,6.70
2017-11-07T01:09:17.128Z,6.70
2017-11-07T01:11:44.594Z,6.80
2017-11-07T01:14:12.060Z,6.80
2017-11-07T01:16:41.231Z,6.80
2017-11-07T01:19:08.692Z,6.80
2017-11-07T01:21:36.142Z,6.80
2017-11-07T01:24:03.609Z,6.80
2017-11-07T01:26:31.062Z,6.80
2017-11-07T01:28:58.503Z,6.80
2017-11-07T01:31:26.716Z,6.80
2017-11-07T01:33:54.931Z,6.80
2017-11-07T01:36:22.407Z,6.80
2017-11-07T01:38:49.846Z,6.80
2017-11-07T01:41:17.295Z,6.80
2017-11-07T01:43:44.751Z,6.80
2017-11-07T01:46:12.191Z,6.80
2017-11-07T01:48:39.655Z,6.80
2017-11-07T01:51:07.082Z,6.80
2017-11-07T01:53:35.295Z,6.90
2017-11-07T01:56:02.735Z,6.90
2017-11-07T01:58:30.183Z,6.90
2017-11-07T02:00:57.623Z,6.80
2017-11-07T02:03:25.843Z,6.80
2017-11-07T02:05:53.287Z,6.80
2017-11-07T02:08:20.742Z,6.80
2017-11-07T02:10:48.187Z,6.80
2017-11-07T02:13:15.624Z,6.80
2017-11-07T02:15:43.842Z,6.80
2017-11-07T02:18:11.286Z,6.80
2017-11-07T02:20:38.741Z,6.70
2017-11-07T02:23:06.183Z,6.70
2017-11-07T02:25:33.635Z,6.70
2017-11-07T02:28:01.080Z,6.70
2017-11-07T02:30:29.297Z,6.60
2017-11-07T02:32:56.738Z,6.60
2017-11-07T02:35:24.200Z,6.50
2017-11-07T02:37:51.655Z,6.50
2017-11-07T02:40:19.108Z,6.50
2017-11-07T02:42:46.547Z,6.60
2017-11-07T02:45:13.991Z,6.70
2017-11-07T02:47:42.191Z,6.70
2017-11-07T02:50:09.646Z,6.60
2017-11-07T02:52:37.103Z,6.60
2017-11-07T02:55:04.560Z,6.50
2017-11-07T02:57:32.024Z,6.50
2017-11-07T02:59:59.476Z,6.60
2017-11-07T03:02:26.928Z,6.50
2017-11-07T03:04:54.385Z,6.50
2017-11-07T03:07:21.832Z,6.50
2017-11-07T03:09:49.275Z,6.50
2017-11-07T03:12:16.713Z,6.50
2017-11-07T03:14:44.930Z,6.60
2017-11-07T03:17:12.366Z,6.50
2017-11-07T03:19:39.849Z,6.50
2017-11-07T03:22:07.295Z,6.40
2017-11-07T03:24:34.740Z,6.40
2017-11-07T03:27:02.179Z,6.40
2017-11-07T03:29:30.399Z,6.50
2017-11-07T03:31:57.848Z,6.40
2017-11-07T03:34:25.291Z,6.40
2017-11-07T03:36:52.726Z,6.40
2017-11-07T03:39:20.163Z,6.30
2017-11-07T03:41:48.378Z,6.30
2017-11-07T03:44:15.817Z,6.30
2017-11-07T03:46:43.280Z,6.30
2017-11-07T03:49:10.703Z,6.40
2017-11-07T03:51:38.918Z,6.50
2017-11-07T03:54:06.361Z,6.50
2017-11-07T03:56:33.798Z,6.50
2017-11-07T03:59:02.002Z,6.50
2017-11-07T04:01:29.461Z,6.50
2017-11-07T04:03:56.899Z,6.50
2017-11-07T04:06:24.338Z,6.50
2017-11-07T04:08:52.548Z,6.40
2017-11-07T04:11:19.990Z,6.40
2017-11-07T04:13:47.431Z,6.50
2017-11-07T04:16:15.639Z,6.40
2017-11-07T04:18:43.087Z,6.40
2017-11-07T04:21:10.518Z,6.40
2017-11-07T04:23:37.966Z,6.40
2017-11-07T04:26:06.178Z,6.40
2017-11-07T04:28:33.627Z,6.40
2017-11-07T04:31:01.067Z,6.40
2017-11-07T04:33:28.515Z,6.30
2017-11-07T04:35:56.723Z,6.40
2017-11-07T04:38:24.170Z,6.40
2017-11-07T04:40:51.626Z,6.40
2017-11-07T04:43:19.094Z,6.40
2017-11-07T04:45:46.534Z,6.40
2017-11-07T04:48:13.979Z,6.50
2017-11-07T04:50:41.419Z,6.40
2017-11-07T04:53:09.637Z,6.40
2017-11-07T04:55:37.074Z,6.30
2017-11-07T04:58:04.519Z,6.40
2017-11-07T05:00:31.960Z,6.30
2017-11-07T05:03:00.163Z,6.40
2017-11-07T05:05:27.618Z,6.40
2017-11-07T05:07:55.061Z,6.40
2017-11-07T05:10:22.512Z,6.40
2017-11-07T05:12:49.959Z,6.40
2017-11-07T05:15:18.171Z,6.40
2017-11-07T05:17:45.608Z,6.40
2017-11-07T05:20:13.071Z,6.50
2017-11-07T05:22:40.511Z,6.50
2017-11-07T05:25:07.982Z,6.50
2017-11-07T05:27:35.402Z,6.50
2017-11-07T05:30:03.622Z,6.50
2017-11-07T05:32:31.073Z,6.50
2017-11-07T05:34:58.524Z,6.50
2017-11-07T05:37:25.967Z,6.50
2017-11-07T05:39:53.410Z,6.50
2017-11-07T05:42:21.623Z,6.50
2017-11-07T05:44:49.067Z,6.50
2017-11-07T05:47:16.523Z,6.50
2017-11-07T05:49:43.962Z,6.50
2017-11-07T05:52:11.411Z,6.60
2017-11-07T05:54:39.625Z,6.60
2017-11-07T05:57:07.075Z,6.60
2017-11-07T05:59:34.527Z,6.60
2017-11-07T06:02:01.977Z,6.60
2017-11-07T06:04:29.434Z,6.60
2017-11-07T06:06:56.890Z,6.60
2017-11-07T06:09:24.326Z,6.70
2017-11-07T06:11:51.772Z,6.70
2017-11-07T06:14:19.983Z,6.70
2017-11-07T06:16:47.437Z,6.70
2017-11-07T06:19:14.884Z,6.70
2017-11-07T06:21:42.335Z,6.80
2017-11-07T06:24:09.771Z,6.70
2017-11-07T06:26:37.991Z,6.80
2017-11-07T06:29:05.430Z,6.80
2017-11-07T06:31:32.923Z,6.80
2017-11-07T06:34:00.362Z,6.80
2017-11-07T06:36:27.807Z,6.80
2017-11-07T06:38:55.250Z,6.90
2017-11-07T06:41:22.691Z,6.90
2017-11-07T06:43:50.140Z,6.90
2017-11-07T06:46:18.360Z,7.00
2017-11-07T06:48:45.816Z,7.00
2017-11-07T06:51:13.258Z,7.00
2017-11-07T06:53:40.703Z,7.10
2017-11-07T06:56:08.148Z,7.40
2017-11-07T06:58:35.591Z,7.60
2017-11-07T07:01:03.810Z,7.50
2017-11-07T07:03:31.323Z,7.40
2017-11-07T07:05:58.763Z,7.40
2017-11-07T07:08:27.018Z,7.30
2017-11-07T07:10:54.460Z,7.30
2017-11-07T07:13:21.900Z,7.30
2017-11-07T07:15:49.347Z,7.30
2017-11-07T07:18:16.787Z,7.30
2017-11-07T07:20:44.238Z,7.40
2017-11-07T07:23:11.679Z,7.40
2017-11-07T07:25:39.900Z,7.40
2017-11-07T07:28:07.342Z,7.40
2017-11-07T07:30:34.799Z,7.40
2017-11-07T07:33:02.254Z,7.40
2017-11-07T07:35:29.695Z,7.40
2017-11-07T07:37:57.139Z,7.30
2017-11-07T07:40:25.360Z,7.30
2017-11-07T07:42:52.801Z,7.30
2017-11-07T07:45:20.251Z,7.30
2017-11-07T07:47:47.695Z,7.30
2017-11-07T07:50:15.142Z,7.30
2017-11-07T07:52:42.581Z,7.30
2017-11-07T07:55:10.795Z,7.40
2017-11-07T07:57:38.230Z,7.40
2017-11-07T08:00:05.714Z,7.40
2017-11-07T08:02:33.163Z,7.40
2017-11-07T08:05:00.616Z,7.40
2017-11-07T08:07:28.072Z,7.40
2017-11-07T08:09:55.508Z,7.40
2017-11-07T08:12:22.958Z,7.40
2017-11-07T08:14:51.175Z,7.50
2017-11-07T08:17:18.626Z,7.50
2017-11-07T08:19:46.070Z,7.50
2017-11-07T08:22:13.520Z,7.50
2017-11-07T08:24:40.971Z,7.50
2017-11-07T08:27:08.426Z,7.50
2017-11-07T08:29:35.872Z,7.60
2017-11-07T08:32:04.091Z,7.80
2017-11-07T08:34:31.535Z,7.80
2017-11-07T08:36:58.983Z,7.80
2017-11-07T08:39:26.441Z,7.80
2017-11-07T08:41:53.895Z,7.90
2017-11-07T08:44:21.349Z,7.90
2017-11-07T08:46:48.807Z,8.00
2017-11-07T08:49:16.249Z,8.00
2017-11-07T08:51:43.679Z,8.00
2017-11-07T08:54:11.895Z,8.20
2017-11-07T08:56:39.351Z,8.20
2017-11-07T08:59:06.807Z,8.30
2017-11-07T09:01:34.265Z,8.40
2017-11-07T09:04:01.714Z,8.40
2017-11-07T09:06:29.172Z,8.50
2017-11-07T09:08:56.633Z,8.50
2017-11-07T09:11:24.077Z,8.50
2017-11-07T09:13:51.525Z,8.50
2017-11-07T09:16:18.966Z,8.60
2017-11-07T09:18:47.184Z,8.50
2017-11-07T09:21:14.627Z,8.50
2017-11-07T09:23:42.079Z,8.60
2017-11-07T09:26:09.632Z,8.60
2017-11-07T09:28:37.098Z,8.70
2017-11-07T09:31:04.538Z,8.70
2017-11-07T09:33:31.982Z,8.60
2017-11-07T09:36:00.196Z,8.70
2017-11-07T09:38:27.636Z,8.70
2017-11-07T09:40:55.096Z,8.70
2017-11-07T09:43:22.547Z,8.80
2017-11-07T09:45:50.004Z,8.80
2017-11-07T09:48:17.448Z,8.90
2017-11-07T09:50:44.894Z,8.80
2017-11-07T09:53:13.105Z,8.90
2017-11-07T09:55:40.563Z,8.90
2017-11-07T09:58:08.003Z,8.90
2017-11-07T10:00:35.459Z,8.90
2017-11-07T10:03:02.915Z,8.90
2017-11-07T10:05:30.383Z,8.90
2017-11-07T10:07:57.827Z,8.90
2017-11-07T10:10:25.281Z,9.00
2017-11-07T10:12:52.738Z,8.90
2017-11-07T10:15:20.181Z,9.00
2017-11-07T10:17:47.628Z,8.90
2017-11-07T10:20:15.084Z,8.90
2017-11-07T10:22:42.543Z,9.00
2017-11-07T10:25:09.978Z,9.00
2017-11-07T10:27:38.220Z,8.90
2017-11-07T10:30:05.664Z,8.90
2017-11-07T10:32:33.119Z,9.00
2017-11-07T10:35:00.564Z,8.90
2017-11-07T10:37:28.024Z,9.00
2017-11-07T10:39:55.471Z,9.10
2017-11-07T10:42:22.916Z,9.10
2017-11-07T10:44:50.350Z,9.10
2017-11-07T10:47:18.571Z,9.20
2017-11-07T10:49:46.016Z,9.20
2017-11-07T10:52:13.471Z,9.10
2017-11-07T10:54:40.928Z,9.20
2017-11-07T10:57:08.371Z,9.10
2017-11-07T10:59:35.814Z,9.10
2017-11-07T11:02:03.259Z,9.10
2017-11-07T11:04:31.466Z,9.10
2017-11-07T11:06:58.923Z,9.10
2017-11-07T11:09:26.367Z,9.10
2017-11-07T11:11:53.814Z,9.10
2017-11-07T11:14:21.251Z,9.10
2017-11-07T11:16:49.467Z,9.10
2017-11-07T11:19:16.924Z,9.10
2017-11-07T11:21:44.387Z,9.10
2017-11-07T11:24:11.835Z,9.10
2017-11-07T11:26:39.282Z,9.00
2017-11-07T11:29:06.743Z,9.00
2017-11-07T11:31:34.955Z,9.10
2017-11-07T11:34:02.399Z,9.00
2017-11-07T11:36:29.843Z,9.10
2017-11-07T11:38:57.299Z,9.10
2017-11-07T11:41:24.745Z,9.10
2017-11-07T11:43:52.200Z,9.10
2017-11-07T11:46:19.644Z,9.10
2017-11-07T11:48:47.082Z,9.10
2017-11-07T11:51:15.295Z,9.00
2017-11-07T11:53:42.739Z,9.10
2017-11-07T11:56:10.185Z,9.10
2017-11-07T11:58:37.628Z,9.20
2017-11-07T12:01:05.843Z,9.10
2017-11-07T12:03:33.283Z,9.10
2017-11-07T12:06:00.732Z,9.20
2017-11-07T12:08:28.171Z,9.20
2017-11-07T12:10:55.611Z,9.20
2017-11-07T12:13:23.843Z,9.30
2017-11-07T12:15:52.091Z,9.30
2017-11-07T12:18:19.556Z,9.20
2017-11-07T12:20:47.011Z,9.20
2017-11-07T12:23:14.465Z,9.20
2017-11-07T12:25:41.915Z,9.20
2017-11-07T12:28:09.352Z,9.20
2017-11-07T12:30:36.815Z,9.20
2017-11-07T12:33:04.268Z,9.20
2017-11-07T12:35:31.719Z,9.30
2017-11-07T12:37:59.964Z,9.40
2017-11-07T12:40:28.218Z,9.50
2017-11-07T12:42:55.670Z,9.50
2017-11-07T12:45:23.143Z,9.50
2017-11-07T12:47:50.608Z,9.50
2017-11-07T12:50:29.959Z,9.50
2017-11-07T12:52:58.232Z,9.40
2017-11-07T12:55:26.447Z,9.40
2017-11-07T12:57:53.906Z,9.40
2017-11-07T13:00:21.363Z,9.50
2017-11-07T13:02:48.819Z,9.50
2017-11-07T13:05:16.587Z,9.40
2017-11-07T13:07:44.048Z,9.50
2017-11-07T13:10:11.503Z,9.50
2017-11-07T13:12:38.950Z,9.50
2017-11-07T13:15:06.406Z,9.50
2017-11-07T13:17:33.859Z,9.50
2017-11-07T13:20:01.314Z,9.50
2017-11-07T13:22:28.775Z,9.50
2017-11-07T13:24:56.376Z,9.50
2017-11-07T13:27:24.616Z,9.50
2017-11-07T13:29:52.075Z,9.50
2017-11-07T13:32:19.576Z,9.50
2017-11-07T13:34:47.795Z,9.50
2017-11-07T13:37:15.251Z,9.50
2017-11-07T13:39:42.695Z,9.50
2017-11-07T13:42:10.205Z,9.50
2017-11-07T13:44:37.642Z,9.50
2017-11-07T13:47:05.105Z,9.50
2017-11-07T13:52:36.143Z,9.50
2017-11-07T13:55:03.596Z,9.50
2017-11-07T13:57:31.160Z,9.40
2017-11-07T13:59:59.762Z,9.50
2017-11-07T14:02:27.219Z,9.50
2017-11-07T14:04:54.659Z,9.40
2017-11-07T14:07:22.107Z,9.40
2017-11-07T14:09:49.565Z,9.30
2017-11-07T14:12:17.017Z,9.30
2017-11-07T14:14:44.462Z,9.30
2017-11-07T14:17:11.925Z,9.30
2017-11-07T14:19:39.389Z,9.40
2017-11-07T14:22:07.392Z,9.40
2017-11-07T14:24:34.835Z,9.40
2017-11-07T14:27:02.293Z,9.40
2017-11-07T14:29:29.747Z,9.30
2017-11-07T14:31:57.212Z,9.30
2017-11-07T14:34:24.660Z,9.30
2017-11-07T14:36:52.129Z,9.30
2017-11-07T14:39:19.576Z,9.30
2017-11-07T14:41:47.032Z,9.30
2017-11-07T14:44:14.501Z,9.30
2017-11-07T14:46:41.935Z,9.20
2017-11-07T14:49:09.394Z,9.30
2017-11-07T14:51:36.850Z,9.20
2017-11-07T14:54:04.319Z,9.20
2017-11-07T14:56:31.760Z,9.20
2017-11-07T14:58:59.212Z,9.20
2017-11-07T15:01:26.662Z,9.20
2017-11-07T15:03:54.128Z,9.20
2017-11-07T15:06:21.576Z,9.20
2017-11-07T15:08:49.032Z,9.10
2017-11-07T15:11:16.484Z,9.10
2017-11-07T15:13:43.946Z,9.20
2017-11-07T15:16:11.390Z,9.20
2017-11-07T15:18:38.872Z,9.20
2017-11-07T15:21:06.303Z,9.10
2017-11-07T15:23:33.767Z,9.10
2017-11-07T15:26:01.236Z,9.20
2017-11-07T15:28:28.671Z,9.20
2017-11-07T15:30:56.132Z,9.20
2017-11-07T15:33:23.570Z,9.20
2017-11-07T15:35:51.027Z,9.20
2017-11-07T15:38:18.483Z,9.10
2017-11-07T15:40:45.936Z,9.10
2017-11-07T15:43:13.390Z,9.20
2017-11-07T15:45:40.852Z,9.10
2017-11-07T15:48:08.308Z,9.10
2017-11-07T15:50:36.643Z,9.00
2017-11-07T15:53:04.865Z,9.00
2017-11-07T15:55:32.324Z,9.00
2017-11-07T15:57:59.796Z,9.10
2017-11-07T16:00:27.238Z,9.00
2017-11-07T16:02:54.695Z,9.00
2017-11-07T16:05:22.147Z,9.00
2017-11-07T16:07:49.596Z,8.90
2017-11-07T16:10:17.047Z,8.90
2017-11-07T16:12:44.498Z,8.90
2017-11-07T16:15:11.959Z,8.90
2017-11-07T16:17:39.404Z,8.90
2017-11-07T16:20:06.865Z,8.90
2017-11-07T16:22:34.308Z,8.80
2017-11-07T16:25:01.800Z,8.80
2017-11-07T16:27:29.242Z,8.80
2017-11-07T16:29:56.698Z,8.80
2017-11-07T16:32:24.152Z,8.70
2017-11-07T16:34:51.776Z,8.70
2017-11-07T16:37:19.996Z,8.70
2017-11-07T16:39:47.447Z,8.70
2017-11-07T16:42:14.924Z,8.70
2017-11-07T16:44:42.368Z,8.70
2017-11-07T16:47:11.726Z,8.70
2017-11-07T16:49:39.945Z,8.70
2017-11-07T16:52:08.077Z,8.60
2017-11-07T16:54:35.538Z,8.70
2017-11-07T16:57:02.980Z,8.70
2017-11-07T16:59:30.431Z,8.70
2017-11-07T17:01:57.879Z,8.70
2017-11-07T17:04:25.335Z,8.60
2017-11-07T17:06:52.783Z,8.60
2017-11-07T17:09:20.236Z,8.60
2017-11-07T17:11:47.690Z,8.60
2017-11-07T17:14:15.185Z,8.60
2017-11-07T17:16:42.647Z,8.60
2017-11-07T17:19:10.097Z,8.60
2017-11-07T17:21:38.315Z,8.50
2017-11-07T17:24:05.763Z,8.50
2017-11-07T17:26:33.989Z,8.50
2017-11-07T17:29:02.201Z,8.50
2017-11-07T17:31:29.652Z,8.50
2017-11-07T17:33:57.092Z,8.50
2017-11-07T17:36:24.553Z,8.50
2017-11-07T17:38:51.983Z,8.50
2017-11-07T17:41:38.733Z,8.40
2017-11-07T17:44:06.177Z,8.40
2017-11-07T17:46:33.611Z,8.50
2017-11-07T17:49:01.826Z,8.50
2017-11-07T17:51:29.267Z,8.50
2017-11-07T17:53:57.341Z,8.50
2017-11-07T17:56:24.796Z,8.50
2017-11-07T17:58:52.238Z,8.50
2017-11-07T18:01:19.679Z,8.40
2017-11-07T18:03:47.900Z,8.40
2017-11-07T18:06:15.343Z,8.40
2017-11-07T18:08:42.795Z,8.40
2017-11-07T18:11:10.235Z,8.30
2017-11-07T18:13:37.678Z,8.40
2017-11-07T18:16:05.125Z,8.40
2017-11-07T18:18:32.571Z,8.30
2017-11-07T18:21:00.025Z,8.30
2017-11-07T18:23:28.217Z,8.30
2017-11-07T18:25:55.782Z,8.40
2017-11-07T18:28:23.991Z,8.30
2017-11-07T18:30:51.435Z,8.20
2017-11-07T18:33:18.892Z,8.30
2017-11-07T18:35:48.448Z,8.30
2017-11-07T18:38:15.919Z,8.30
2017-11-07T18:40:43.359Z,8.30
2017-11-07T18:43:10.816Z,8.30
2017-11-07T18:45:38.260Z,8.30
2017-11-07T18:48:05.744Z,8.30
2017-11-07T18:50:33.947Z,8.30
2017-11-07T18:53:01.403Z,8.20
2017-11-07T18:55:28.846Z,8.30
2017-11-07T18:57:56.291Z,8.40
2017-11-07T19:00:23.755Z,8.40
2017-11-07T19:02:51.524Z,8.40
2017-11-07T19:05:19.360Z,8.40
2017-11-07T19:07:46.839Z,8.30
2017-11-07T19:10:14.287Z,8.40
2017-11-07T19:12:42.502Z,8.40
2017-11-07T19:15:10.969Z,8.40
2017-11-07T19:17:38.428Z,8.30
2017-11-07T19:20:05.884Z,8.30
2017-11-07T19:22:33.336Z,8.40
2017-11-07T19:25:00.793Z,8.40
2017-11-07T19:27:28.235Z,8.40
2017-11-07T19:29:55.678Z,8.40
2017-11-07T19:32:23.929Z,8.30
2017-11-07T19:34:51.373Z,8.30
2017-11-07T19:37:18.907Z,8.40
2017-11-07T19:39:46.391Z,8.40
2017-11-07T19:42:13.851Z,8.40
2017-11-07T19:44:41.339Z,8.40
2017-11-07T19:47:09.551Z,8.40
2017-11-07T19:49:36.991Z,8.30
2017-11-07T19:52:04.458Z,8.30
2017-11-07T19:54:31.903Z,8.40
2017-11-07T19:56:59.359Z,8.30
2017-11-07T19:59:26.809Z,8.30
2017-11-07T20:01:54.259Z,8.40
2017-11-07T20:04:22.164Z,8.40
2017-11-07T20:06:49.608Z,8.30
2017-11-07T20:09:17.174Z,8.30
2017-11-07T20:11:44.623Z,8.30
2017-11-07T20:14:12.068Z,8.30
2017-11-07T20:16:39.523Z,8.30
2017-11-07T20:19:06.970Z,8.30
2017-11-07T20:21:34.419Z,8.30
2017-11-07T20:24:01.862Z,8.30
2017-11-07T20:26:29.312Z,8.20
2017-11-07T20:28:56.761Z,8.30
2017-11-07T20:31:24.202Z,8.30
2017-11-07T20:33:51.646Z,8.30
2017-11-07T20:36:19.115Z,8.30
2017-11-07T20:38:47.379Z,8.30
2017-11-07T20:41:14.864Z,8.20
2017-11-07T20:43:43.075Z,8.30
2017-11-07T20:46:10.592Z,8.20
2017-11-07T20:48:38.067Z,8.30
2017-11-07T20:51:05.515Z,8.30
2017-11-07T20:53:32.976Z,8.30
2017-11-07T20:56:00.423Z,8.40
2017-11-07T20:58:27.916Z,8.30
2017-11-07T21:00:56.222Z,8.30
2017-11-07T21:03:23.679Z,8.30
2017-11-07T21:05:51.210Z,8.30
2017-11-07T21:08:18.847Z,8.20
2017-11-07T21:10:46.291Z,8.20
2017-11-07T21:13:14.503Z,8.20
2017-11-07T21:15:41.959Z,8.20
2017-11-07T21:18:09.407Z,8.20
2017-11-07T21:20:36.864Z,8.20
2017-11-07T21:23:04.326Z,8.20
2017-11-07T21:25:31.774Z,8.20
2017-11-07T21:27:59.257Z,8.20
2017-11-07T21:30:26.699Z,8.20
2017-11-07T21:32:54.168Z,8.20
2017-11-07T21:35:22.419Z,8.20
2017-11-07T21:37:51.685Z,8.20
2017-11-07T21:40:19.158Z,8.20
2017-11-07T21:42:46.627Z,8.20
2017-11-07T21:45:14.402Z,8.20
2017-11-07T21:47:41.859Z,8.20
2017-11-07T21:50:09.328Z,8.20
2017-11-07T21:52:36.811Z,8.20
2017-11-07T21:55:07.601Z,8.20
2017-11-07T21:57:35.062Z,8.20
2017-11-07T22:00:02.543Z,8.10
2017-11-07T22:02:29.999Z,8.20
2017-11-07T22:04:57.460Z,8.10
2017-11-07T22:07:24.914Z,8.10
2017-11-07T22:09:53.311Z,8.10
2017-11-07T22:12:21.532Z,8.10
2017-11-07T22:14:49.016Z,8.10
2017-11-07T22:17:18.271Z,8.10
2017-11-07T22:19:45.807Z,8.10
2017-11-07T22:22:13.271Z,8.10
2017-11-07T22:24:40.719Z,8.10
2017-11-07T22:27:08.163Z,8.10
2017-11-07T22:29:35.614Z,8.10
2017-11-07T22:32:03.078Z,8.10
2017-11-07T22:34:30.532Z,8.10
2017-11-07T22:36:57.988Z,8.10
2017-11-07T22:39:25.453Z,8.10
2017-11-07T22:41:52.936Z,8.10
2017-11-07T22:44:20.386Z,8.10
2017-11-07T22:46:47.861Z,8.10
2017-11-07T22:49:15.319Z,8.10
2017-11-07T22:51:42.771Z,8.10
2017-11-07T22:54:10.214Z,8.10
2017-11-07T22:56:37.692Z,8.10
2017-11-07T22:59:05.169Z,8.10
2017-11-07T23:01:32.646Z,8.10
2017-11-07T23:04:00.294Z,8.00
2017-11-07T23:06:27.743Z,8.00
2017-11-07T23:08:55.281Z,8.10
2017-11-07T23:11:22.802Z,8.10
2017-11-07T23:13:50.256Z,8.10
2017-11-07T23:16:18.480Z,8.10
2017-11-07T23:18:46.733Z,8.10
2017-11-07T23:21:14.729Z,8.00
2017-11-07T23:23:42.190Z,8.10
2017-11-07T23:26:09.639Z,8.10
2017-11-07T23:28:37.113Z,8.10
2017-11-07T23:31:04.590Z,8.00
2017-11-07T23:33:32.047Z,8.00
2017-11-07T23:35:59.518Z,8.00
2017-11-07T23:38:27.021Z,8.00
2017-11-07T23:40:54.476Z,8.00
2017-11-07T23:43:21.936Z,8.00
2017-11-07T23:45:49.387Z,8.00
2017-11-07T23:48:19.458Z,8.00
2017-11-07T23:50:46.948Z,7.90
2017-11-07T23:56:18.424Z,8.00
2017-11-07T23:58:45.879Z,7.90
